Weather


ICAO METAR
KAPA KAPA 172053Z 16011KT 10SM FEW070 FEW110 BKN220 09/M05 A2983 RMK AO2 SLP100 ACSL DSNT NW OMTNS T00941050 56047
KASE KASE 172053Z COR 19010G17KT 10SM FEW100 08/M07 A3000 RMK AO2 SLP130 T00781067 56031
KBJC KBJC 172048Z 15003KT 50SM FEW080 SCT220 13/M07 A2984
KBKF KBKF 172058Z 15009KT 10SM FEW070 SCT250 08/M01 A2983 RMK AO2A SLP091 T00821013 57045
KCOS KCOS 172054Z 18022G32KT 10SM FEW120 FEW180 BKN240 13/M10 A2989 RMK AO2 PK WND 19032/2050 SLP088 APRNT ROTOR CLD SW T01331100 56048
KCPR KCPR 172053Z 22027G33KT 10SM SCT070 BKN110 06/M02 A2979 RMK AO2 PK WND 22040/2022 SLP091 T00611017 56030
KCYS KCYS 172053Z 17008KT 10SM FEW090 SCT120 11/M07 A2987 RMK AO2 SLP090 T01111072 56032
KDEN KDEN 172053Z 16013KT 10SM FEW090 FEW120 BKN220 12/M03 A2983 RMK AO2 SLP076 T01171033 56046
KEGE KEGE 172056Z 27006KT 10SM BKN100 06/M06 A3001 RMK AO2 SLP174 T00611056 56043
KFCS KFCS 172121Z AUTO 24019G24KT 10SM CLR 15/M13 A2986 RMK AO2 WSHFT 06 SLP111 $
KFMN KFMN 172053Z 10008KT 10SM BKN110 09/02 A3013 RMK AO2 SLP206 T00940017 58037
KFTG KFTG 172058Z 16011KT 10SM SCT110 BKN200 11/M02 A2985
KGCC KGCC 172053Z AUTO 13006KT 10SM FEW100 06/M02 A2977 RMK AO2 SLP094 T00611017 56036
KGJT KGJT 172053Z 32004KT 10SM OVC065 02/00 A3003 RMK AO2 SLP174 T00220000 56036
KPUB KPUB 172053Z 25006KT 10SM CLR 16/M04 A2989 RMK AO2 SLP095 T01561039 56048
KRAP KRAP 172059Z 13005KT 2SM BR OVC002 M04/M06 A2993 RMK AO2 T10391056
KRCA KRCA 172121Z 00000KT 3/4SM BR VV001 M04/M04 A2992 RMK AO2A SLP176 RVRNO FZRANO $

Surface Data
Click here.

This is a composite map contain the following analyses: radar summary (color filled areas), surface data plot (composite station model), frontal locations (in various bold lines) and pressure contours (in thin blue lines).